sensor_id;sensor_type;location;lat;lon;timestamp;temperature;humidity
79513;SHT31;68962;51.980;5.678;2023-09-12T00:02:01;22.8;72.9
79513;SHT31;68962;51.980;5.678;2023-09-12T00:04:29;22.7;73.0
79513;SHT31;68962;51.980;5.678;2023-09-12T00:06:58;22.7;73.2
79513;SHT31;68962;51.980;5.678;2023-09-12T00:09:27;22.7;73.2
79513;SHT31;68962;51.980;5.678;2023-09-12T00:11:57;22.7;73.1
79513;SHT31;68962;51.980;5.678;2023-09-12T00:14:26;22.7;73.1
79513;SHT31;68962;51.980;5.678;2023-09-12T00:16:54;22.7;73.5
79513;SHT31;68962;51.980;5.678;2023-09-12T00:19:23;22.7;73.3
79513;SHT31;68962;51.980;5.678;2023-09-12T00:21:51;22.7;73.3
79513;SHT31;68962;51.980;5.678;2023-09-12T00:24:21;22.6;73.4
79513;SHT31;68962;51.980;5.678;2023-09-12T00:26:50;22.6;73.4
79513;SHT31;68962;51.980;5.678;2023-09-12T00:29:18;22.5;73.7
79513;SHT31;68962;51.980;5.678;2023-09-12T00:31:47;22.5;74.0
79513;SHT31;68962;51.980;5.678;2023-09-12T00:34:18;22.5;74.1
79513;SHT31;68962;51.980;5.678;2023-09-12T00:36:46;22.4;74.3
79513;SHT31;68962;51.980;5.678;2023-09-12T00:39:15;22.4;74.3
79513;SHT31;68962;51.980;5.678;2023-09-12T00:41:43;22.4;74.4
79513;SHT31;68962;51.980;5.678;2023-09-12T00:44:12;22.4;74.0
79513;SHT31;68962;51.980;5.678;2023-09-12T00:46:40;22.4;74.1
79513;SHT31;68962;51.980;5.678;2023-09-12T00:49:10;22.4;74.2
79513;SHT31;68962;51.980;5.678;2023-09-12T00:51:41;22.4;74.0
79513;SHT31;68962;51.980;5.678;2023-09-12T00:54:11;22.4;74.1
79513;SHT31;68962;51.980;5.678;2023-09-12T00:56:40;22.5;74.1
79513;SHT31;68962;51.980;5.678;2023-09-12T00:59:11;22.5;73.9
79513;SHT31;68962;51.980;5.678;2023-09-12T01:01:40;22.6;73.6
79513;SHT31;68962;51.980;5.678;2023-09-12T01:04:09;22.7;73.1
79513;SHT31;68962;51.980;5.678;2023-09-12T01:06:38;22.7;72.6
79513;SHT31;68962;51.980;5.678;2023-09-12T01:09:08;22.7;72.6
79513;SHT31;68962;51.980;5.678;2023-09-12T01:11:39;22.6;72.8
79513;SHT31;68962;51.980;5.678;2023-09-12T01:14:08;22.6;72.7
79513;SHT31;68962;51.980;5.678;2023-09-12T01:16:37;22.6;72.9
79513;SHT31;68962;51.980;5.678;2023-09-12T01:19:09;22.5;73.3
79513;SHT31;68962;51.980;5.678;2023-09-12T01:22:54;22.5;73.5
79513;SHT31;68962;51.980;5.678;2023-09-12T01:26:02;22.5;73.4
79513;SHT31;68962;51.980;5.678;2023-09-12T01:35:48;22.7;72.1
79513;SHT31;68962;51.980;5.678;2023-09-12T01:38:17;22.7;71.9
79513;SHT31;68962;51.980;5.678;2023-09-12T01:40:48;22.7;72.0
79513;SHT31;68962;51.980;5.678;2023-09-12T01:43:19;22.7;72.1
79513;SHT31;68962;51.980;5.678;2023-09-12T01:45:52;22.6;72.2
79513;SHT31;68962;51.980;5.678;2023-09-12T01:48:25;22.6;72.3
79513;SHT31;68962;51.980;5.678;2023-09-12T01:50:58;22.6;72.4
79513;SHT31;68962;51.980;5.678;2023-09-12T01:53:28;22.6;72.4
79513;SHT31;68962;51.980;5.678;2023-09-12T01:56:06;22.6;72.3
79513;SHT31;68962;51.980;5.678;2023-09-12T01:58:36;22.6;72.3
79513;SHT31;68962;51.980;5.678;2023-09-12T02:01:06;22.6;72.1
79513;SHT31;68962;51.980;5.678;2023-09-12T02:03:34;22.6;71.9
79513;SHT31;68962;51.980;5.678;2023-09-12T02:06:02;22.7;71.8
79513;SHT31;68962;51.980;5.678;2023-09-12T02:08:31;22.7;71.5
79513;SHT31;68962;51.980;5.678;2023-09-12T02:11:00;22.6;71.4
79513;SHT31;68962;51.980;5.678;2023-09-12T02:13:28;22.6;71.2
79513;SHT31;68962;51.980;5.678;2023-09-12T02:16:01;22.5;71.7
79513;SHT31;68962;51.980;5.678;2023-09-12T02:18:30;22.4;72.2
79513;SHT31;68962;51.980;5.678;2023-09-12T02:21:00;22.3;72.7
79513;SHT31;68962;51.980;5.678;2023-09-12T02:23:28;22.2;72.6
79513;SHT31;68962;51.980;5.678;2023-09-12T02:25:57;22.1;73.1
79513;SHT31;68962;51.980;5.678;2023-09-12T02:28:26;22.0;72.9
79513;SHT31;68962;51.980;5.678;2023-09-12T02:30:54;22.0;72.9
79513;SHT31;68962;51.980;5.678;2023-09-12T02:33:23;21.9;73.0
79513;SHT31;68962;51.980;5.678;2023-09-12T02:35:51;21.9;72.7
79513;SHT31;68962;51.980;5.678;2023-09-12T02:38:20;21.8;73.0
79513;SHT31;68962;51.980;5.678;2023-09-12T02:40:49;21.7;73.3
79513;SHT31;68962;51.980;5.678;2023-09-12T02:43:17;21.7;73.3
79513;SHT31;68962;51.980;5.678;2023-09-12T02:45:45;21.7;73.4
79513;SHT31;68962;51.980;5.678;2023-09-12T02:48:14;21.7;73.2
79513;SHT31;68962;51.980;5.678;2023-09-12T02:50:43;21.6;72.9
79513;SHT31;68962;51.980;5.678;2023-09-12T02:53:11;21.6;73.5
79513;SHT31;68962;51.980;5.678;2023-09-12T02:55:42;21.5;73.9
79513;SHT31;68962;51.980;5.678;2023-09-12T02:58:10;21.5;74.3
79513;SHT31;68962;51.980;5.678;2023-09-12T03:00:40;21.4;74.8
79513;SHT31;68962;51.980;5.678;2023-09-12T03:03:09;21.3;74.7
79513;SHT31;68962;51.980;5.678;2023-09-12T03:05:37;21.3;74.8
79513;SHT31;68962;51.980;5.678;2023-09-12T03:08:06;21.2;75.1
79513;SHT31;68962;51.980;5.678;2023-09-12T03:10:35;21.1;76.0
79513;SHT31;68962;51.980;5.678;2023-09-12T03:13:03;21.1;76.8
79513;SHT31;68962;51.980;5.678;2023-09-12T03:15:37;21.1;77.1
79513;SHT31;68962;51.980;5.678;2023-09-12T03:18:09;21.0;77.4
79513;SHT31;68962;51.980;5.678;2023-09-12T03:20:39;21.0;77.9
79513;SHT31;68962;51.980;5.678;2023-09-12T03:23:09;21.0;77.9
79513;SHT31;68962;51.980;5.678;2023-09-12T03:25:38;21.0;77.8
79513;SHT31;68962;51.980;5.678;2023-09-12T03:28:09;21.0;77.7
79513;SHT31;68962;51.980;5.678;2023-09-12T03:30:38;21.1;78.3
79513;SHT31;68962;51.980;5.678;2023-09-12T03:33:06;21.1;78.7
79513;SHT31;68962;51.980;5.678;2023-09-12T03:35:36;21.2;77.9
79513;SHT31;68962;51.980;5.678;2023-09-12T03:38:05;21.2;76.7
79513;SHT31;68962;51.980;5.678;2023-09-12T03:40:33;21.3;76.3
79513;SHT31;68962;51.980;5.678;2023-09-12T03:43:02;21.4;75.4
79513;SHT31;68962;51.980;5.678;2023-09-12T03:45:32;21.5;76.0
79513;SHT31;68962;51.980;5.678;2023-09-12T03:48:00;21.5;75.7
79513;SHT31;68962;51.980;5.678;2023-09-12T03:50:29;21.6;75.2
79513;SHT31;68962;51.980;5.678;2023-09-12T03:53:00;21.7;74.6
79513;SHT31;68962;51.980;5.678;2023-09-12T03:55:29;21.7;74.1
79513;SHT31;68962;51.980;5.678;2023-09-12T03:57:57;21.7;74.0
79513;SHT31;68962;51.980;5.678;2023-09-12T04:00:26;21.8;73.2
79513;SHT31;68962;51.980;5.678;2023-09-12T04:02:54;21.8;74.7
79513;SHT31;68962;51.980;5.678;2023-09-12T04:05:25;21.8;73.3
79513;SHT31;68962;51.980;5.678;2023-09-12T04:07:54;21.9;72.8
79513;SHT31;68962;51.980;5.678;2023-09-12T04:10:24;21.9;72.4
79513;SHT31;68962;51.980;5.678;2023-09-12T04:12:54;22.0;72.0
79513;SHT31;68962;51.980;5.678;2023-09-12T04:15:23;22.0;71.7
79513;SHT31;68962;51.980;5.678;2023-09-12T04:17:52;22.0;73.3
79513;SHT31;68962;51.980;5.678;2023-09-12T04:20:20;22.0;73.6
79513;SHT31;68962;51.980;5.678;2023-09-12T04:22:51;22.0;72.6
79513;SHT31;68962;51.980;5.678;2023-09-12T04:25:19;22.0;72.7
79513;SHT31;68962;51.980;5.678;2023-09-12T04:27:48;22.0;72.7
79513;SHT31;68962;51.980;5.678;2023-09-12T04:30:16;22.0;72.2
79513;SHT31;68962;51.980;5.678;2023-09-12T04:32:45;22.0;71.7
79513;SHT31;68962;51.980;5.678;2023-09-12T04:35:13;22.0;71.4
79513;SHT31;68962;51.980;5.678;2023-09-12T04:37:42;22.0;71.2
79513;SHT31;68962;51.980;5.678;2023-09-12T04:40:11;21.9;71.5
79513;SHT31;68962;51.980;5.678;2023-09-12T04:42:40;21.9;71.7
79513;SHT31;68962;51.980;5.678;2023-09-12T04:45:09;21.8;71.4
79513;SHT31;68962;51.980;5.678;2023-09-12T04:47:37;21.8;72.0
79513;SHT31;68962;51.980;5.678;2023-09-12T04:50:06;21.7;72.4
79513;SHT31;68962;51.980;5.678;2023-09-12T04:52:35;21.6;72.7
79513;SHT31;68962;51.980;5.678;2023-09-12T04:55:04;21.5;73.0
79513;SHT31;68962;51.980;5.678;2023-09-12T04:57:32;21.5;74.0
79513;SHT31;68962;51.980;5.678;2023-09-12T05:00:01;21.4;74.7
79513;SHT31;68962;51.980;5.678;2023-09-12T05:02:31;21.4;75.0
79513;SHT31;68962;51.980;5.678;2023-09-12T05:05:00;21.3;75.4
79513;SHT31;68962;51.980;5.678;2023-09-12T05:07:30;21.3;74.9
79513;SHT31;68962;51.980;5.678;2023-09-12T05:09:58;21.2;74.4
79513;SHT31;68962;51.980;5.678;2023-09-12T05:12:27;21.2;75.0
79513;SHT31;68962;51.980;5.678;2023-09-12T05:14:55;21.2;76.1
79513;SHT31;68962;51.980;5.678;2023-09-12T05:17:24;21.2;76.3
79513;SHT31;68962;51.980;5.678;2023-09-12T05:19:53;21.2;76.4
79513;SHT31;68962;51.980;5.678;2023-09-12T05:22:21;21.2;75.2
79513;SHT31;68962;51.980;5.678;2023-09-12T05:24:50;21.1;75.2
79513;SHT31;68962;51.980;5.678;2023-09-12T05:27:18;21.1;75.1
79513;SHT31;68962;51.980;5.678;2023-09-12T05:29:47;21.1;75.1
79513;SHT31;68962;51.980;5.678;2023-09-12T05:32:16;21.1;76.0
79513;SHT31;68962;51.980;5.678;2023-09-12T05:34:44;21.1;76.7
79513;SHT31;68962;51.980;5.678;2023-09-12T05:37:16;21.1;76.9
79513;SHT31;68962;51.980;5.678;2023-09-12T05:39:45;21.1;77.1
79513;SHT31;68962;51.980;5.678;2023-09-12T05:42:14;21.2;77.2
79513;SHT31;68962;51.980;5.678;2023-09-12T05:44:47;21.2;77.1
79513;SHT31;68962;51.980;5.678;2023-09-12T05:47:20;21.2;76.9
79513;SHT31;68962;51.980;5.678;2023-09-12T05:49:49;21.2;76.7
79513;SHT31;68962;51.980;5.678;2023-09-12T05:52:18;21.2;76.9
79513;SHT31;68962;51.980;5.678;2023-09-12T05:54:47;21.2;77.0
79513;SHT31;68962;51.980;5.678;2023-09-12T05:57:17;21.2;76.9
79513;SHT31;68962;51.980;5.678;2023-09-12T05:59:45;21.3;77.0
79513;SHT31;68962;51.980;5.678;2023-09-12T06:02:14;21.3;77.0
79513;SHT31;68962;51.980;5.678;2023-09-12T06:04:44;21.3;77.0
79513;SHT31;68962;51.980;5.678;2023-09-12T06:07:14;21.3;76.8
79513;SHT31;68962;51.980;5.678;2023-09-12T06:09:43;21.4;76.7
79513;SHT31;68962;51.980;5.678;2023-09-12T06:12:11;21.4;76.6
79513;SHT31;68962;51.980;5.678;2023-09-12T06:14:40;21.4;76.6
79513;SHT31;68962;51.980;5.678;2023-09-12T06:17:10;21.5;76.6
79513;SHT31;68962;51.980;5.678;2023-09-12T06:19:39;21.5;76.7
79513;SHT31;68962;51.980;5.678;2023-09-12T06:22:07;21.5;76.6
79513;SHT31;68962;51.980;5.678;2023-09-12T06:24:36;21.6;76.8
79513;SHT31;68962;51.980;5.678;2023-09-12T06:27:07;21.7;76.5
79513;SHT31;68962;51.980;5.678;2023-09-12T06:29:36;21.8;76.1
79513;SHT31;68962;51.980;5.678;2023-09-12T06:32:05;21.9;75.2
79513;SHT31;68962;51.980;5.678;2023-09-12T06:34:33;21.9;75.0
79513;SHT31;68962;51.980;5.678;2023-09-12T06:37:02;22.0;74.7
79513;SHT31;68962;51.980;5.678;2023-09-12T06:39:31;22.0;74.5
79513;SHT31;68962;51.980;5.678;2023-09-12T06:41:59;22.0;74.3
79513;SHT31;68962;51.980;5.678;2023-09-12T06:44:28;22.1;74.2
79513;SHT31;68962;51.980;5.678;2023-09-12T06:46:57;22.1;74.2
79513;SHT31;68962;51.980;5.678;2023-09-12T06:49:25;22.1;74.0
79513;SHT31;68962;51.980;5.678;2023-09-12T06:51:54;22.2;74.1
79513;SHT31;68962;51.980;5.678;2023-09-12T06:54:22;22.2;73.6
79513;SHT31;68962;51.980;5.678;2023-09-12T06:56:51;22.3;73.5
79513;SHT31;68962;51.980;5.678;2023-09-12T06:59:20;22.3;73.3
79513;SHT31;68962;51.980;5.678;2023-09-12T07:01:48;22.3;73.1
79513;SHT31;68962;51.980;5.678;2023-09-12T07:04:17;22.3;73.1
79513;SHT31;68962;51.980;5.678;2023-09-12T07:06:48;22.4;73.2
79513;SHT31;68962;51.980;5.678;2023-09-12T07:09:17;22.4;73.8
79513;SHT31;68962;51.980;5.678;2023-09-12T07:11:47;22.4;74.2
79513;SHT31;68962;51.980;5.678;2023-09-12T07:14:15;22.5;73.4
79513;SHT31;68962;51.980;5.678;2023-09-12T07:16:44;22.6;73.3
79513;SHT31;68962;51.980;5.678;2023-09-12T07:19:13;22.7;72.8
79513;SHT31;68962;51.980;5.678;2023-09-12T07:21:42;22.8;72.6
79513;SHT31;68962;51.980;5.678;2023-09-12T07:24:12;22.9;71.9
79513;SHT31;68962;51.980;5.678;2023-09-12T07:26:41;23.0;71.2
79513;SHT31;68962;51.980;5.678;2023-09-12T07:29:09;23.0;72.3
79513;SHT31;68962;51.980;5.678;2023-09-12T07:31:39;23.1;71.7
79513;SHT31;68962;51.980;5.678;2023-09-12T07:34:08;23.1;71.6
79513;SHT31;68962;51.980;5.678;2023-09-12T07:36:38;23.1;71.7
79513;SHT31;68962;51.980;5.678;2023-09-12T07:39:06;23.2;72.1
79513;SHT31;68962;51.980;5.678;2023-09-12T07:41:35;23.2;72.4
79513;SHT31;68962;51.980;5.678;2023-09-12T07:44:04;23.2;71.3
79513;SHT31;68962;51.980;5.678;2023-09-12T07:46:37;23.2;71.1
79513;SHT31;68962;51.980;5.678;2023-09-12T07:49:05;23.3;70.9
79513;SHT31;68962;51.980;5.678;2023-09-12T07:51:35;23.3;70.4
79513;SHT31;68962;51.980;5.678;2023-09-12T07:54:04;23.4;69.9
79513;SHT31;68962;51.980;5.678;2023-09-12T07:56:33;23.4;70.3
79513;SHT31;68962;51.980;5.678;2023-09-12T07:59:02;23.5;69.2
79513;SHT31;68962;51.980;5.678;2023-09-12T08:01:30;23.5;69.7
79513;SHT31;68962;51.980;5.678;2023-09-12T08:04:01;23.6;70.4
79513;SHT31;68962;51.980;5.678;2023-09-12T08:06:29;24.0;68.5
79513;SHT31;68962;51.980;5.678;2023-09-12T08:08:58;24.6;65.8
79513;SHT31;68962;51.980;5.678;2023-09-12T08:11:27;25.7;62.9
79513;SHT31;68962;51.980;5.678;2023-09-12T08:13:57;27.0;58.4
79513;SHT31;68962;51.980;5.678;2023-09-12T08:16:26;27.3;57.0
79513;SHT31;68962;51.980;5.678;2023-09-12T08:18:56;27.3;57.1
79513;SHT31;68962;51.980;5.678;2023-09-12T08:21:25;27.3;57.2
79513;SHT31;68962;51.980;5.678;2023-09-12T08:23:53;27.3;58.0
79513;SHT31;68962;51.980;5.678;2023-09-12T08:26:22;27.5;57.1
79513;SHT31;68962;51.980;5.678;2023-09-12T08:28:50;27.7;56.4
79513;SHT31;68962;51.980;5.678;2023-09-12T08:31:19;28.0;56.0
79513;SHT31;68962;51.980;5.678;2023-09-12T08:33:47;28.6;54.7
79513;SHT31;68962;51.980;5.678;2023-09-12T08:36:16;29.1;53.3
79513;SHT31;68962;51.980;5.678;2023-09-12T08:38:46;29.6;52.1
79513;SHT31;68962;51.980;5.678;2023-09-12T08:41:15;29.9;51.0
79513;SHT31;68962;51.980;5.678;2023-09-12T08:43:44;30.3;50.6
79513;SHT31;68962;51.980;5.678;2023-09-12T08:46:15;30.7;49.2
79513;SHT31;68962;51.980;5.678;2023-09-12T08:48:46;31.1;47.7
79513;SHT31;68962;51.980;5.678;2023-09-12T08:51:15;31.4;46.8
79513;SHT31;68962;51.980;5.678;2023-09-12T08:53:44;31.6;46.4
79513;SHT31;68962;51.980;5.678;2023-09-12T08:56:12;31.9;46.0
79513;SHT31;68962;51.980;5.678;2023-09-12T08:58:43;32.1;46.1
79513;SHT31;68962;51.980;5.678;2023-09-12T09:01:16;32.3;45.2
79513;SHT31;68962;51.980;5.678;2023-09-12T09:03:47;32.6;43.6
79513;SHT31;68962;51.980;5.678;2023-09-12T09:06:18;32.8;43.4
79513;SHT31;68962;51.980;5.678;2023-09-12T09:08:48;33.0;43.3
79513;SHT31;68962;51.980;5.678;2023-09-12T09:11:17;33.2;43.2
79513;SHT31;68962;51.980;5.678;2023-09-12T09:13:45;33.4;42.5
79513;SHT31;68962;51.980;5.678;2023-09-12T09:16:15;33.6;41.7
79513;SHT31;68962;51.980;5.678;2023-09-12T09:18:52;33.7;41.5
79513;SHT31;68962;51.980;5.678;2023-09-12T09:21:22;33.8;40.6
79513;SHT31;68962;51.980;5.678;2023-09-12T09:23:53;33.9;40.5
79513;SHT31;68962;51.980;5.678;2023-09-12T09:26:22;33.9;40.7
79513;SHT31;68962;51.980;5.678;2023-09-12T09:29:07;34.0;40.2
79513;SHT31;68962;51.980;5.678;2023-09-12T09:31:40;34.1;39.6
79513;SHT31;68962;51.980;5.678;2023-09-12T09:34:12;34.1;39.9
79513;SHT31;68962;51.980;5.678;2023-09-12T09:36:49;34.2;39.5
79513;SHT31;68962;51.980;5.678;2023-09-12T09:39:19;34.3;40.3
79513;SHT31;68962;51.980;5.678;2023-09-12T09:41:50;34.4;39.7
79513;SHT31;68962;51.980;5.678;2023-09-12T09:44:21;34.5;39.1
79513;SHT31;68962;51.980;5.678;2023-09-12T09:46:56;34.6;38.4
79513;SHT31;68962;51.980;5.678;2023-09-12T09:49:26;34.7;38.2
79513;SHT31;68962;51.980;5.678;2023-09-12T09:51:56;34.8;37.5
79513;SHT31;68962;51.980;5.678;2023-09-12T09:54:25;34.8;37.5
79513;SHT31;68962;51.980;5.678;2023-09-12T09:56:55;34.9;37.4
79513;SHT31;68962;51.980;5.678;2023-09-12T09:59:25;35.0;37.8
79513;SHT31;68962;51.980;5.678;2023-09-12T10:01:56;35.0;36.7
79513;SHT31;68962;51.980;5.678;2023-09-12T10:04:27;35.1;36.7
79513;SHT31;68962;51.980;5.678;2023-09-12T10:06:57;35.1;37.6
79513;SHT31;68962;51.980;5.678;2023-09-12T10:09:28;35.2;36.6
79513;SHT31;68962;51.980;5.678;2023-09-12T10:11:58;35.1;36.8
79513;SHT31;68962;51.980;5.678;2023-09-12T10:14:29;35.1;37.0
79513;SHT31;68962;51.980;5.678;2023-09-12T10:17:02;35.2;37.2
79513;SHT31;68962;51.980;5.678;2023-09-12T10:19:37;35.2;36.3
79513;SHT31;68962;51.980;5.678;2023-09-12T10:22:09;35.3;35.8
79513;SHT31;68962;51.980;5.678;2023-09-12T10:24:42;35.4;36.3
79513;SHT31;68962;51.980;5.678;2023-09-12T10:27:12;35.5;36.1
79513;SHT31;68962;51.980;5.678;2023-09-12T10:29:42;35.5;36.0
79513;SHT31;68962;51.980;5.678;2023-09-12T10:32:14;35.5;35.0
79513;SHT31;68962;51.980;5.678;2023-09-12T10:34:44;35.5;35.9
79513;SHT31;68962;51.980;5.678;2023-09-12T10:37:16;35.6;35.7
79513;SHT31;68962;51.980;5.678;2023-09-12T10:39:46;35.7;35.4
79513;SHT31;68962;51.980;5.678;2023-09-12T10:42:16;35.7;35.4
79513;SHT31;68962;51.980;5.678;2023-09-12T10:44:46;35.6;35.7
79513;SHT31;68962;51.980;5.678;2023-09-12T10:47:15;35.5;35.9
79513;SHT31;68962;51.980;5.678;2023-09-12T10:49:46;35.4;36.4
79513;SHT31;68962;51.980;5.678;2023-09-12T10:52:25;35.3;36.1
79513;SHT31;68962;51.980;5.678;2023-09-12T10:54:55;35.1;37.0
79513;SHT31;68962;51.980;5.678;2023-09-12T10:57:24;34.9;37.0
79513;SHT31;68962;51.980;5.678;2023-09-12T11:00:14;34.6;37.3
79513;SHT31;68962;51.980;5.678;2023-09-12T11:02:42;34.3;38.3
79513;SHT31;68962;51.980;5.678;2023-09-12T11:05:37;34.1;38.6
79513;SHT31;68962;51.980;5.678;2023-09-12T11:08:09;33.8;38.3
79513;SHT31;68962;51.980;5.678;2023-09-12T11:10:37;33.6;38.8
79513;SHT31;68962;51.980;5.678;2023-09-12T11:13:18;33.4;40.0
79513;SHT31;68962;51.980;5.678;2023-09-12T11:16:12;33.1;40.4
79513;SHT31;68962;51.980;5.678;2023-09-12T11:19:14;32.8;40.3
79513;SHT31;68962;51.980;5.678;2023-09-12T11:21:44;32.5;40.8
79513;SHT31;68962;51.980;5.678;2023-09-12T11:24:14;32.2;41.6
79513;SHT31;68962;51.980;5.678;2023-09-12T11:26:57;31.9;42.5
79513;SHT31;68962;51.980;5.678;2023-09-12T11:29:35;31.8;42.7
79513;SHT31;68962;51.980;5.678;2023-09-12T11:32:05;31.7;42.8
79513;SHT31;68962;51.980;5.678;2023-09-12T11:34:42;31.7;43.2
79513;SHT31;68962;51.980;5.678;2023-09-12T11:37:24;31.7;43.6
79513;SHT31;68962;51.980;5.678;2023-09-12T11:39:55;31.7;43.4
79513;SHT31;68962;51.980;5.678;2023-09-12T11:42:27;31.6;43.4
79513;SHT31;68962;51.980;5.678;2023-09-12T11:44:57;31.4;44.0
79513;SHT31;68962;51.980;5.678;2023-09-12T11:47:31;31.2;44.8
79513;SHT31;68962;51.980;5.678;2023-09-12T11:50:01;31.1;44.2
79513;SHT31;68962;51.980;5.678;2023-09-12T11:52:30;31.0;44.3
79513;SHT31;68962;51.980;5.678;2023-09-12T11:54:59;31.0;44.5
79513;SHT31;68962;51.980;5.678;2023-09-12T11:57:27;31.1;43.5
79513;SHT31;68962;51.980;5.678;2023-09-12T11:59:58;31.2;43.5
79513;SHT31;68962;51.980;5.678;2023-09-12T12:02:35;31.2;44.0
79513;SHT31;68962;51.980;5.678;2023-09-12T12:05:06;31.2;44.8
79513;SHT31;68962;51.980;5.678;2023-09-12T12:07:35;31.2;45.8
79513;SHT31;68962;51.980;5.678;2023-09-12T12:10:05;31.2;44.5
79513;SHT31;68962;51.980;5.678;2023-09-12T12:12:33;31.2;43.8
79513;SHT31;68962;51.980;5.678;2023-09-12T12:15:02;31.2;44.3
79513;SHT31;68962;51.980;5.678;2023-09-12T12:17:31;31.1;44.7
79513;SHT31;68962;51.980;5.678;2023-09-12T12:19:59;31.1;44.6
79513;SHT31;68962;51.980;5.678;2023-09-12T12:22:33;31.0;44.0
79513;SHT31;68962;51.980;5.678;2023-09-12T12:25:08;30.9;44.5
79513;SHT31;68962;51.980;5.678;2023-09-12T12:27:40;30.8;45.4
79513;SHT31;68962;51.980;5.678;2023-09-12T12:30:10;30.8;45.8
79513;SHT31;68962;51.980;5.678;2023-09-12T12:32:42;30.8;46.6
79513;SHT31;68962;51.980;5.678;2023-09-12T12:35:19;30.8;45.3
79513;SHT31;68962;51.980;5.678;2023-09-12T12:37:48;30.8;44.6
79513;SHT31;68962;51.980;5.678;2023-09-12T12:40:18;30.8;43.8
79513;SHT31;68962;51.980;5.678;2023-09-12T12:42:47;30.9;43.1
79513;SHT31;68962;51.980;5.678;2023-09-12T12:45:19;30.9;43.4
79513;SHT31;68962;51.980;5.678;2023-09-12T12:48:00;30.9;42.6
79513;SHT31;68962;51.980;5.678;2023-09-12T12:50:29;30.9;43.4
79513;SHT31;68962;51.980;5.678;2023-09-12T12:52:57;31.0;43.7
79513;SHT31;68962;51.980;5.678;2023-09-12T12:55:28;31.0;44.4
79513;SHT31;68962;51.980;5.678;2023-09-12T12:57:56;31.0;42.7
79513;SHT31;68962;51.980;5.678;2023-09-12T13:00:25;31.1;43.1
79513;SHT31;68962;51.980;5.678;2023-09-12T13:02:55;31.0;43.0
79513;SHT31;68962;51.980;5.678;2023-09-12T13:05:29;31.0;43.4
79513;SHT31;68962;51.980;5.678;2023-09-12T13:07:59;31.0;43.8
79513;SHT31;68962;51.980;5.678;2023-09-12T13:10:28;31.0;44.6
79513;SHT31;68962;51.980;5.678;2023-09-12T13:12:59;31.0;44.0
79513;SHT31;68962;51.980;5.678;2023-09-12T13:15:28;31.1;42.5
79513;SHT31;68962;51.980;5.678;2023-09-12T13:17:58;31.1;42.7
79513;SHT31;68962;51.980;5.678;2023-09-12T13:20:28;31.2;43.2
79513;SHT31;68962;51.980;5.678;2023-09-12T13:23:00;31.2;42.7
79513;SHT31;68962;51.980;5.678;2023-09-12T13:25:33;31.3;41.7
79513;SHT31;68962;51.980;5.678;2023-09-12T13:28:03;31.4;41.5
79513;SHT31;68962;51.980;5.678;2023-09-12T13:30:31;31.4;40.8
79513;SHT31;68962;51.980;5.678;2023-09-12T13:33:00;31.4;40.9
79513;SHT31;68962;51.980;5.678;2023-09-12T13:35:30;31.4;39.9
79513;SHT31;68962;51.980;5.678;2023-09-12T13:37:59;31.4;40.1
79513;SHT31;68962;51.980;5.678;2023-09-12T13:40:30;31.3;40.2
79513;SHT31;68962;51.980;5.678;2023-09-12T13:42:58;31.2;40.4
79513;SHT31;68962;51.980;5.678;2023-09-12T13:46:01;31.2;39.6
79513;SHT31;68962;51.980;5.678;2023-09-12T13:52:12;30.6;40.7
79513;SHT31;68962;51.980;5.678;2023-09-12T13:54:42;30.4;41.2
79513;SHT31;68962;51.980;5.678;2023-09-12T13:57:12;30.3;40.4
79513;SHT31;68962;51.980;5.678;2023-09-12T13:59:41;30.2;40.7
79513;SHT31;68962;51.980;5.678;2023-09-12T14:02:10;30.1;41.0
79513;SHT31;68962;51.980;5.678;2023-09-12T14:04:39;30.1;41.8
79513;SHT31;68962;51.980;5.678;2023-09-12T14:07:08;30.0;43.3
79513;SHT31;68962;51.980;5.678;2023-09-12T14:09:37;29.9;44.5
79513;SHT31;68962;51.980;5.678;2023-09-12T14:12:08;29.9;44.6
79513;SHT31;68962;51.980;5.678;2023-09-12T14:14:37;29.8;44.1
79513;SHT31;68962;51.980;5.678;2023-09-12T14:17:06;29.8;43.9
79513;SHT31;68962;51.980;5.678;2023-09-12T14:19:36;29.8;43.9
79513;SHT31;68962;51.980;5.678;2023-09-12T14:22:06;29.7;44.7
79513;SHT31;68962;51.980;5.678;2023-09-12T14:24:34;29.7;45.6
79513;SHT31;68962;51.980;5.678;2023-09-12T14:27:04;29.7;44.1
79513;SHT31;68962;51.980;5.678;2023-09-12T14:29:32;29.7;44.4
79513;SHT31;68962;51.980;5.678;2023-09-12T14:32:01;29.7;44.5
79513;SHT31;68962;51.980;5.678;2023-09-12T14:34:30;29.7;44.7
79513;SHT31;68962;51.980;5.678;2023-09-12T14:36:59;29.7;44.2
79513;SHT31;68962;51.980;5.678;2023-09-12T14:39:28;29.7;44.3
79513;SHT31;68962;51.980;5.678;2023-09-12T14:41:56;29.7;44.3
79513;SHT31;68962;51.980;5.678;2023-09-12T14:44:27;29.7;44.3
79513;SHT31;68962;51.980;5.678;2023-09-12T14:47:00;29.7;44.0
79513;SHT31;68962;51.980;5.678;2023-09-12T14:49:31;29.8;44.8
79513;SHT31;68962;51.980;5.678;2023-09-12T14:52:00;29.8;44.4
79513;SHT31;68962;51.980;5.678;2023-09-12T14:54:29;29.8;44.9
79513;SHT31;68962;51.980;5.678;2023-09-12T14:56:57;29.8;44.0
79513;SHT31;68962;51.980;5.678;2023-09-12T14:59:26;29.8;44.9
79513;SHT31;68962;51.980;5.678;2023-09-12T15:01:54;29.7;44.5
79513;SHT31;68962;51.980;5.678;2023-09-12T15:04:23;29.6;45.7
79513;SHT31;68962;51.980;5.678;2023-09-12T15:06:52;29.5;46.0
79513;SHT31;68962;51.980;5.678;2023-09-12T15:09:21;29.4;46.6
79513;SHT31;68962;51.980;5.678;2023-09-12T15:11:51;29.3;46.5
79513;SHT31;68962;51.980;5.678;2023-09-12T15:14:20;29.2;46.4
79513;SHT31;68962;51.980;5.678;2023-09-12T15:16:49;29.1;46.4
79513;SHT31;68962;51.980;5.678;2023-09-12T15:19:18;29.0;47.3
79513;SHT31;68962;51.980;5.678;2023-09-12T15:21:46;28.9;47.1
79513;SHT31;68962;51.980;5.678;2023-09-12T15:24:15;28.8;47.1
79513;SHT31;68962;51.980;5.678;2023-09-12T15:26:43;28.7;47.9
79513;SHT31;68962;51.980;5.678;2023-09-12T15:29:12;28.6;48.3
79513;SHT31;68962;51.980;5.678;2023-09-12T15:31:41;28.6;48.7
79513;SHT31;68962;51.980;5.678;2023-09-12T15:34:11;28.5;48.6
79513;SHT31;68962;51.980;5.678;2023-09-12T15:36:43;28.4;48.3
79513;SHT31;68962;51.980;5.678;2023-09-12T15:39:13;28.3;48.7
79513;SHT31;68962;51.980;5.678;2023-09-12T15:41:43;28.3;49.5
79513;SHT31;68962;51.980;5.678;2023-09-12T15:44:11;28.2;49.8
79513;SHT31;68962;51.980;5.678;2023-09-12T15:46:40;28.2;50.0
79513;SHT31;68962;51.980;5.678;2023-09-12T15:49:11;28.1;50.5
79513;SHT31;68962;51.980;5.678;2023-09-12T15:51:41;28.1;51.4
79513;SHT31;68962;51.980;5.678;2023-09-12T15:54:10;28.0;51.6
79513;SHT31;68962;51.980;5.678;2023-09-12T15:56:39;28.0;52.2
79513;SHT31;68962;51.980;5.678;2023-09-12T15:59:09;28.0;52.0
79513;SHT31;68962;51.980;5.678;2023-09-12T16:01:38;27.9;52.5
79513;SHT31;68962;51.980;5.678;2023-09-12T16:04:07;27.9;53.0
79513;SHT31;68962;51.980;5.678;2023-09-12T16:06:36;27.8;53.2
79513;SHT31;68962;51.980;5.678;2023-09-12T16:09:05;27.8;53.7
79513;SHT31;68962;51.980;5.678;2023-09-12T16:11:34;27.7;53.8
79513;SHT31;68962;51.980;5.678;2023-09-12T16:14:03;27.7;53.6
79513;SHT31;68962;51.980;5.678;2023-09-12T16:16:31;27.6;53.5
79513;SHT31;68962;51.980;5.678;2023-09-12T16:19:00;27.5;53.7
79513;SHT31;68962;51.980;5.678;2023-09-12T16:21:31;27.5;53.1
79513;SHT31;68962;51.980;5.678;2023-09-12T16:24:02;27.4;52.9
79513;SHT31;68962;51.980;5.678;2023-09-12T16:26:30;27.3;53.3
79513;SHT31;68962;51.980;5.678;2023-09-12T16:28:59;27.3;53.4
79513;SHT31;68962;51.980;5.678;2023-09-12T16:31:28;27.2;53.5
79513;SHT31;68962;51.980;5.678;2023-09-12T16:33:56;27.1;53.7